Time;durP1;ratioP1;P1;durP2;ratioP2;P2;SDS_P1;SDS_P2;PMS_P1;PMS_P2;Temp;Humidity;BMP_temperature;BMP_pressure;BME280_temperature;BME280_humidity;BME280_pressure;Samples;Min_cycle;Max_cycle;Signal;HPM_P1;HPM_P2
2021/01/06 00:02:20;;;;;;;20.60;11.80;;;;;;;;;;5016317;28;20705;-69
2021/01/06 00:04:45;;;;;;;19.40;11.63;;;;;;;;;;5036750;28;20204;-69
2021/01/06 00:07:10;;;;;;;19.90;12.63;;;;;;;;;;5032661;28;20181;-69
2021/01/06 00:09:35;;;;;;;22.07;12.47;;;;;;;;;;5031690;28;20213;-69
2021/01/06 00:12:00;;;;;;;20.80;11.27;;;;;;;;;;5032837;28;20212;-69
2021/01/06 00:14:26;;;;;;;17.83;12.37;;;;;;;;;;5035981;28;20197;-69
2021/01/06 00:16:52;;;;;;;19.10;11.73;;;;;;;;;;5016702;28;20643;-69
2021/01/06 00:19:18;;;;;;;18.67;11.93;;;;;;;;;;5032525;28;20659;-69
2021/01/06 00:21:43;;;;;;;16.97;10.63;;;;;;;;;;5030642;28;20189;-69
2021/01/06 00:24:08;;;;;;;16.77;10.70;;;;;;;;;;5035819;28;20199;-70
2021/01/06 00:26:33;;;;;;;17.90;11.87;;;;;;;;;;5031550;28;20193;-69
2021/01/06 00:28:59;;;;;;;18.37;12.87;;;;;;;;;;5044671;28;20174;-69
2021/01/06 00:31:24;;;;;;;21.77;13.13;;;;;;;;;;5034665;28;20189;-69
2021/01/06 00:33:49;;;;;;;20.03;11.87;;;;;;;;;;5032778;28;20204;-69
2021/01/06 00:36:19;;;;;;;18.90;12.30;;;;;;;;;;5013991;28;20189;-69
2021/01/06 00:38:45;;;;;;;18.67;11.03;;;;;;;;;;5033596;28;20186;-70
2021/01/06 00:41:10;;;;;;;16.07;11.23;;;;;;;;;;5030036;28;20186;-69
2021/01/06 00:43:35;;;;;;;20.13;11.43;;;;;;;;;;5036198;28;20221;-69
2021/01/06 00:46:00;;;;;;;18.70;11.80;;;;;;;;;;5013417;28;20181;-69
2021/01/06 00:48:26;;;;;;;18.50;11.83;;;;;;;;;;5034744;28;20185;-69
2021/01/06 00:50:51;;;;;;;17.87;10.90;;;;;;;;;;5017542;28;20701;-69
2021/01/06 00:53:18;;;;;;;18.70;12.03;;;;;;;;;;5037012;28;20208;-69
2021/01/06 00:55:44;;;;;;;15.37;10.37;;;;;;;;;;5033617;28;20190;-69
2021/01/06 00:58:09;;;;;;;18.93;11.50;;;;;;;;;;5034349;28;20326;-69
2021/01/06 01:00:34;;;;;;;19.50;11.90;;;;;;;;;;5015629;28;20194;-69
2021/01/06 01:02:59;;;;;;;15.40;10.03;;;;;;;;;;5034382;28;20214;-69
2021/01/06 01:05:26;;;;;;;18.67;11.10;;;;;;;;;;5022922;28;20193;-70
2021/01/06 01:07:52;;;;;;;16.13;11.73;;;;;;;;;;5032978;28;20186;-69
2021/01/06 01:10:34;;;;;;;19.50;11.30;;;;;;;;;;5030280;28;20655;-69
2021/01/06 01:13:00;;;;;;;17.50;11.80;;;;;;;;;;5034822;28;20639;-69
2021/01/06 01:15:26;;;;;;;17.47;10.87;;;;;;;;;;5034490;28;20193;-69
2021/01/06 01:17:52;;;;;;;19.47;11.47;;;;;;;;;;5030809;28;20186;-68
2021/01/06 01:20:17;;;;;;;20.73;11.57;;;;;;;;;;5017286;28;20895;-69
2021/01/06 01:22:43;;;;;;;19.17;11.27;;;;;;;;;;5015141;28;20281;-70
2021/01/06 01:25:08;;;;;;;17.50;11.50;;;;;;;;;;5032331;28;20185;-69
2021/01/06 01:27:34;;;;;;;23.87;11.40;;;;;;;;;;5029906;28;20178;-69
2021/01/06 01:29:59;;;;;;;17.40;11.47;;;;;;;;;;5016552;28;20254;-69
2021/01/06 01:32:24;;;;;;;20.90;12.38;;;;;;;;;;5031933;28;20332;-69
2021/01/06 01:34:49;;;;;;;18.08;9.60;;;;;;;;;;5046950;28;20190;-69
2021/01/06 01:37:14;;;;;;;17.17;10.17;;;;;;;;;;5028735;28;20651;-69
2021/01/06 01:39:39;;;;;;;14.77;9.97;;;;;;;;;;5030938;28;20186;-69
2021/01/06 01:42:05;;;;;;;14.47;9.87;;;;;;;;;;5029208;28;20213;-69
2021/01/06 01:44:30;;;;;;;19.47;10.67;;;;;;;;;;5030115;28;20256;-69
2021/01/06 01:47:03;;;;;;;16.87;10.17;;;;;;;;;;5026153;28;20600;-69
2021/01/06 01:49:33;;;;;;;17.63;10.97;;;;;;;;;;5033340;28;20186;-69
2021/01/06 01:52:04;;;;;;;13.77;9.10;;;;;;;;;;5025714;28;21040;-69
2021/01/06 01:54:31;;;;;;;13.70;9.23;;;;;;;;;;5031558;28;20213;-69
2021/01/06 01:56:59;;;;;;;15.20;10.10;;;;;;;;;;5049118;28;20209;-69
2021/01/06 01:59:28;;;;;;;13.17;9.80;;;;;;;;;;5031405;28;20571;-69
2021/01/06 02:01:56;;;;;;;13.67;9.10;;;;;;;;;;5028014;28;20294;-69
2021/01/06 02:04:40;;;;;;;13.77;9.40;;;;;;;;;;5030679;28;20675;-69
2021/01/06 02:07:08;;;;;;;14.17;8.90;;;;;;;;;;5031536;28;20169;-69
2021/01/06 02:09:39;;;;;;;16.00;9.10;;;;;;;;;;5029789;28;20190;-69
2021/01/06 02:12:13;;;;;;;12.00;8.03;;;;;;;;;;5029143;28;20207;-69
2021/01/06 02:14:45;;;;;;;14.13;8.60;;;;;;;;;;5041951;28;20222;-69
2021/01/06 02:17:12;;;;;;;12.67;8.57;;;;;;;;;;5029751;28;20193;-69
2021/01/06 02:19:38;;;;;;;10.90;8.33;;;;;;;;;;5029699;28;20212;-69
2021/01/06 02:22:04;;;;;;;13.30;8.30;;;;;;;;;;5012821;28;20217;-69
2021/01/06 02:24:30;;;;;;;15.90;9.67;;;;;;;;;;5032826;28;20184;-69
2021/01/06 02:26:55;;;;;;;12.30;8.07;;;;;;;;;;5028998;28;20544;-69
2021/01/06 02:29:21;;;;;;;11.40;7.90;;;;;;;;;;5015709;28;20600;-69
2021/01/06 02:31:46;;;;;;;12.60;9.00;;;;;;;;;;5032632;28;20674;-69
2021/01/06 02:34:11;;;;;;;11.87;7.77;;;;;;;;;;5030478;28;20175;-69
2021/01/06 02:36:37;;;;;;;13.43;7.97;;;;;;;;;;5028454;28;20176;-69
2021/01/06 02:39:05;;;;;;;14.10;8.60;;;;;;;;;;5030562;28;20781;-69
2021/01/06 02:41:30;;;;;;;13.63;9.30;;;;;;;;;;5014731;28;20208;-69
2021/01/06 02:43:55;;;;;;;13.43;8.87;;;;;;;;;;5028205;28;20258;-69
2021/01/06 02:46:20;;;;;;;13.47;8.27;;;;;;;;;;5032199;28;20204;-69
2021/01/06 02:48:46;;;;;;;12.47;8.70;;;;;;;;;;5028708;28;20198;-69
2021/01/06 02:51:13;;;;;;;12.60;8.20;;;;;;;;;;5031550;28;20223;-69
2021/01/06 02:53:59;;;;;;;11.57;8.57;;;;;;;;;;5027872;28;20213;-69
2021/01/06 02:56:24;;;;;;;11.83;7.73;;;;;;;;;;5026682;28;20189;-70
2021/01/06 02:58:51;;;;;;;13.97;8.30;;;;;;;;;;5029088;28;20263;-69
2021/01/06 03:01:17;;;;;;;12.07;8.37;;;;;;;;;;5029109;28;20189;-69
2021/01/06 03:03:43;;;;;;;13.27;8.13;;;;;;;;;;5031300;28;20688;-69
2021/01/06 03:06:28;;;;;;;11.60;7.77;;;;;;;;;;5034613;28;20186;-69
2021/01/06 03:08:54;;;;;;;12.03;8.60;;;;;;;;;;5031944;28;20213;-69
2021/01/06 03:11:19;;;;;;;12.47;8.17;;;;;;;;;;5028047;28;20332;-69
2021/01/06 03:13:44;;;;;;;13.30;8.27;;;;;;;;;;5035543;28;20567;-68
2021/01/06 03:16:09;;;;;;;10.40;7.07;;;;;;;;;;5032890;28;20297;-70
2021/01/06 03:18:35;;;;;;;13.67;8.27;;;;;;;;;;5033505;28;20245;-69
2021/01/06 03:21:02;;;;;;;14.03;8.17;;;;;;;;;;5042646;28;20174;-69
2021/01/06 03:23:37;;;;;;;10.90;7.73;;;;;;;;;;5037214;28;21656;-68
2021/01/06 03:26:04;;;;;;;11.80;7.90;;;;;;;;;;5037497;28;20181;-67
2021/01/06 03:28:31;;;;;;;11.67;7.43;;;;;;;;;;5034060;28;20320;-68
2021/01/06 03:30:57;;;;;;;11.30;7.37;;;;;;;;;;5026946;28;20730;-68
2021/01/06 03:33:42;;;;;;;10.10;7.60;;;;;;;;;;5028677;28;20221;-68
2021/01/06 03:36:10;;;;;;;12.27;8.77;;;;;;;;;;5015279;28;20662;-68
2021/01/06 03:38:37;;;;;;;9.70;7.30;;;;;;;;;;5030000;28;20685;-68
2021/01/06 03:41:05;;;;;;;10.20;7.37;;;;;;;;;;5035303;28;20895;-68
2021/01/06 03:43:31;;;;;;;12.60;8.03;;;;;;;;;;5031365;28;20220;-68
2021/01/06 03:46:01;;;;;;;11.77;8.33;;;;;;;;;;5017783;28;20181;-67
2021/01/06 03:48:29;;;;;;;10.20;7.13;;;;;;;;;;5033003;28;20292;-67
2021/01/06 03:50:58;;;;;;;10.90;7.37;;;;;;;;;;5038108;28;20182;-71
2021/01/06 03:53:23;;;;;;;11.23;7.73;;;;;;;;;;5022419;28;20586;-69
2021/01/06 03:55:51;;;;;;;10.65;6.95;;;;;;;;;;5037199;28;20560;-68
2021/01/06 03:58:25;;;;;;;10.23;7.83;;;;;;;;;;5017444;28;20566;-68
2021/01/06 04:00:51;;;;;;;10.87;7.73;;;;;;;;;;5034027;28;20580;-68
2021/01/06 04:03:35;;;;;;;11.63;7.07;;;;;;;;;;5038312;28;20214;-68
2021/01/06 04:06:02;;;;;;;10.27;6.93;;;;;;;;;;5033897;28;20243;-69
2021/01/06 04:08:37;;;;;;;12.10;7.23;;;;;;;;;;5029567;28;20182;-67
2021/01/06 04:11:04;;;;;;;11.77;7.47;;;;;;;;;;5034619;28;20462;-68
2021/01/06 04:13:30;;;;;;;12.33;7.70;;;;;;;;;;5033260;28;20696;-68
2021/01/06 04:15:55;;;;;;;12.37;7.73;;;;;;;;;;5020207;28;20178;-68
2021/01/06 04:18:20;;;;;;;10.03;6.47;;;;;;;;;;5020468;28;20557;-67
2021/01/06 04:20:45;;;;;;;12.80;7.97;;;;;;;;;;5034282;28;20181;-68
2021/01/06 04:23:12;;;;;;;10.60;7.00;;;;;;;;;;5033070;28;20214;-68
2021/01/06 04:25:42;;;;;;;10.50;7.90;;;;;;;;;;5035471;28;20181;-69
2021/01/06 04:28:13;;;;;;;12.60;7.13;;;;;;;;;;5030160;28;21030;-70
2021/01/06 04:30:40;;;;;;;11.20;7.90;;;;;;;;;;5030885;28;20186;-68
2021/01/06 04:33:07;;;;;;;12.27;7.47;;;;;;;;;;5033780;28;20236;-68
2021/01/06 04:35:32;;;;;;;13.13;7.20;;;;;;;;;;5029518;28;20186;-70
2021/01/06 04:37:58;;;;;;;11.33;7.80;;;;;;;;;;5014381;28;20192;-68
2021/01/06 04:40:24;;;;;;;12.97;7.80;;;;;;;;;;5030815;28;20186;-68
2021/01/06 04:42:50;;;;;;;10.60;7.37;;;;;;;;;;5038115;28;20244;-70
2021/01/06 04:45:19;;;;;;;14.00;8.00;;;;;;;;;;5025810;28;20643;-68
2021/01/06 04:48:07;;;;;;;11.63;8.00;;;;;;;;;;5024440;28;20272;-68
2021/01/06 04:50:46;;;;;;;12.53;7.07;;;;;;;;;;5016997;28;20579;-70
2021/01/06 04:53:14;;;;;;;10.37;7.23;;;;;;;;;;5028838;28;20264;-67
2021/01/06 04:55:51;;;;;;;10.90;7.60;;;;;;;;;;5024643;28;20194;-68
2021/01/06 04:58:19;;;;;;;11.53;7.77;;;;;;;;;;5015571;28;20173;-68
2021/01/06 05:01:00;;;;;;;11.93;7.77;;;;;;;;;;5033904;28;20188;-70
2021/01/06 05:03:31;;;;;;;10.80;7.57;;;;;;;;;;5029682;28;20354;-70
2021/01/06 05:06:15;;;;;;;11.70;7.83;;;;;;;;;;5028528;28;20181;-70
2021/01/06 05:08:43;;;;;;;11.77;8.03;;;;;;;;;;5029894;28;20200;-69
2021/01/06 05:11:11;;;;;;;13.97;8.73;;;;;;;;;;5028689;28;20214;-68
2021/01/06 05:13:42;;;;;;;12.50;8.13;;;;;;;;;;5034178;28;20296;-70
2021/01/06 05:16:11;;;;;;;11.50;7.70;;;;;;;;;;5029261;28;20225;-70
2021/01/06 05:18:38;;;;;;;13.63;8.63;;;;;;;;;;5029949;28;20651;-70
2021/01/06 05:21:07;;;;;;;9.50;7.83;;;;;;;;;;5031369;28;20897;-70
2021/01/06 05:23:36;;;;;;;11.50;7.83;;;;;;;;;;5030840;28;20264;-70
2021/01/06 05:26:02;;;;;;;9.97;7.17;;;;;;;;;;5028494;28;20271;-70
2021/01/06 05:28:27;;;;;;;10.73;7.53;;;;;;;;;;5032890;28;20653;-70
2021/01/06 05:30:54;;;;;;;15.13;8.07;;;;;;;;;;5015024;28;20183;-70
2021/01/06 05:33:22;;;;;;;13.40;8.50;;;;;;;;;;5033212;28;20197;-70
2021/01/06 05:35:47;;;;;;;16.03;8.63;;;;;;;;;;5032013;28;20276;-70
2021/01/06 05:38:13;;;;;;;16.73;8.43;;;;;;;;;;5031086;28;20654;-70
2021/01/06 05:40:39;;;;;;;14.37;9.57;;;;;;;;;;5035613;28;20178;-70
2021/01/06 05:43:06;;;;;;;12.47;7.93;;;;;;;;;;5030094;28;20240;-70
2021/01/06 05:45:38;;;;;;;11.20;7.53;;;;;;;;;;5029634;28;20185;-70
2021/01/06 05:48:15;;;;;;;12.73;7.57;;;;;;;;;;5027378;28;20818;-70
2021/01/06 05:50:41;;;;;;;14.17;7.83;;;;;;;;;;5038277;28;20365;-70
2021/01/06 05:53:12;;;;;;;12.90;8.27;;;;;;;;;;5031722;28;20205;-70
2021/01/06 05:55:41;;;;;;;12.93;7.93;;;;;;;;;;5020486;28;20201;-70
2021/01/06 05:58:25;;;;;;;11.20;7.57;;;;;;;;;;5031207;28;20197;-70
2021/01/06 06:00:54;;;;;;;10.97;7.07;;;;;;;;;;5033470;28;20215;-70
2021/01/06 06:03:37;;;;;;;9.43;7.30;;;;;;;;;;5014599;28;20218;-70
2021/01/06 06:06:05;;;;;;;9.47;6.63;;;;;;;;;;5033423;28;20178;-70
2021/01/06 06:08:41;;;;;;;10.57;7.37;;;;;;;;;;5033162;28;20185;-70
2021/01/06 06:11:06;;;;;;;11.40;6.90;;;;;;;;;;5013487;28;20746;-68
2021/01/06 06:13:34;;;;;;;11.23;7.70;;;;;;;;;;5032639;28;20683;-68
2021/01/06 06:16:12;;;;;;;10.63;7.20;;;;;;;;;;5017487;28;20181;-70
2021/01/06 06:18:57;;;;;;;10.60;6.73;;;;;;;;;;5029012;28;20264;-67
2021/01/06 06:21:36;;;;;;;12.63;7.93;;;;;;;;;;5031873;28;20183;-70
2021/01/06 06:24:20;;;;;;;13.70;8.03;;;;;;;;;;5020795;28;20228;-68
2021/01/06 06:27:01;;;;;;;11.33;6.77;;;;;;;;;;5033316;28;20313;-70
2021/01/06 06:29:32;;;;;;;11.70;6.97;;;;;;;;;;5034840;28;20209;-70
2021/01/06 06:31:59;;;;;;;11.80;7.90;;;;;;;;;;5032914;28;20276;-70
2021/01/06 06:34:25;;;;;;;11.00;7.13;;;;;;;;;;5027860;28;20191;-69
2021/01/06 06:36:51;;;;;;;11.13;7.47;;;;;;;;;;5031531;28;20655;-70
2021/01/06 06:39:27;;;;;;;11.20;8.10;;;;;;;;;;5030322;28;20189;-70
2021/01/06 06:41:55;;;;;;;11.37;7.60;;;;;;;;;;5014001;28;20608;-68
2021/01/06 06:44:41;;;;;;;10.40;7.43;;;;;;;;;;5016485;28;20255;-68
2021/01/06 06:47:12;;;;;;;11.33;7.57;;;;;;;;;;4989978;28;20190;-68
2021/01/06 06:49:37;;;;;;;11.53;7.63;;;;;;;;;;5040001;28;20231;-68
2021/01/06 06:52:20;;;;;;;11.52;7.10;;;;;;;;;;5031937;28;20185;-70
2021/01/06 06:54:57;;;;;;;10.53;7.70;;;;;;;;;;5033875;28;20180;-70
2021/01/06 06:57:30;;;;;;;9.43;6.57;;;;;;;;;;5029683;28;20261;-68
2021/01/06 07:00:09;;;;;;;10.33;7.67;;;;;;;;;;5025733;28;20210;-68
2021/01/06 07:02:42;;;;;;;9.83;7.10;;;;;;;;;;5029367;28;20216;-68
2021/01/06 07:05:14;;;;;;;12.23;7.63;;;;;;;;;;5010486;28;20314;-68
2021/01/06 07:07:41;;;;;;;8.90;6.50;;;;;;;;;;5030280;28;20219;-68
2021/01/06 07:10:18;;;;;;;10.53;7.07;;;;;;;;;;5040292;28;20264;-67
2021/01/06 07:12:43;;;;;;;9.97;6.73;;;;;;;;;;5030938;28;20205;-68
2021/01/06 07:15:23;;;;;;;10.90;6.53;;;;;;;;;;5034865;28;20673;-68
2021/01/06 07:17:49;;;;;;;9.20;6.60;;;;;;;;;;5033949;28;20957;-68
2021/01/06 07:20:28;;;;;;;10.23;6.87;;;;;;;;;;5032181;28;21068;-69
2021/01/06 07:22:56;;;;;;;13.20;7.47;;;;;;;;;;5033142;28;20240;-69
2021/01/06 07:25:25;;;;;;;10.07;6.67;;;;;;;;;;5032707;28;20186;-69
2021/01/06 07:27:57;;;;;;;11.40;8.10;;;;;;;;;;5035443;28;20178;-69
2021/01/06 07:30:30;;;;;;;9.67;6.53;;;;;;;;;;5031007;28;20189;-69
2021/01/06 07:32:55;;;;;;;12.00;7.40;;;;;;;;;;5032069;28;20264;-69
2021/01/06 07:35:22;;;;;;;11.30;6.90;;;;;;;;;;5030933;28;20575;-69
2021/01/06 07:37:55;;;;;;;13.90;7.53;;;;;;;;;;5038071;28;20193;-69
2021/01/06 07:40:25;;;;;;;9.73;6.67;;;;;;;;;;5032307;28;20226;-69
2021/01/06 07:43:11;;;;;;;10.10;7.10;;;;;;;;;;5034065;28;20240;-69
2021/01/06 07:45:48;;;;;;;8.87;6.40;;;;;;;;;;5029390;28;20601;-69
2021/01/06 07:48:16;;;;;;;10.23;7.73;;;;;;;;;;5030756;28;20458;-69
2021/01/06 07:50:57;;;;;;;10.27;7.47;;;;;;;;;;5016225;28;20221;-69
2021/01/06 07:53:25;;;;;;;12.63;6.93;;;;;;;;;;5030505;28;20201;-69
2021/01/06 07:55:57;;;;;;;9.33;6.33;;;;;;;;;;5033514;28;20634;-69
2021/01/06 07:58:33;;;;;;;10.73;7.37;;;;;;;;;;5019777;28;20259;-69
2021/01/06 08:01:14;;;;;;;11.10;7.33;;;;;;;;;;5031150;28;20181;-69
2021/01/06 08:03:47;;;;;;;10.90;7.47;;;;;;;;;;5018661;28;20205;-69
2021/01/06 08:06:12;;;;;;;14.50;8.80;;;;;;;;;;5034378;28;20238;-69
2021/01/06 08:08:42;;;;;;;9.17;6.57;;;;;;;;;;5032221;28;21004;-69
2021/01/06 08:11:09;;;;;;;8.70;6.57;;;;;;;;;;5031443;28;20182;-69
2021/01/06 08:13:35;;;;;;;10.70;7.37;;;;;;;;;;5035591;28;20721;-69
2021/01/06 08:16:12;;;;;;;10.47;7.23;;;;;;;;;;5031257;28;20213;-69
2021/01/06 08:18:57;;;;;;;9.33;6.70;;;;;;;;;;5032134;28;20693;-69
2021/01/06 08:21:24;;;;;;;12.40;7.73;;;;;;;;;;5037005;28;20210;-69
2021/01/06 08:24:09;;;;;;;9.57;6.77;;;;;;;;;;5030358;28;20209;-70
2021/01/06 08:26:34;;;;;;;10.90;6.97;;;;;;;;;;5031338;28;20178;-70
2021/01/06 08:29:12;;;;;;;11.43;6.93;;;;;;;;;;5031778;28;20555;-68
2021/01/06 08:31:37;;;;;;;10.30;7.80;;;;;;;;;;5034841;28;20170;-69
2021/01/06 08:34:03;;;;;;;10.27;6.97;;;;;;;;;;5020930;28;20216;-69
2021/01/06 08:36:31;;;;;;;10.27;6.50;;;;;;;;;;5037399;28;20719;-69
2021/01/06 08:39:17;;;;;;;10.00;6.27;;;;;;;;;;5043174;28;20181;-69
2021/01/06 08:41:43;;;;;;;8.83;6.47;;;;;;;;;;5033192;28;20231;-68
2021/01/06 08:44:25;;;;;;;8.93;6.17;;;;;;;;;;5033941;28;20728;-69
2021/01/06 08:46:53;;;;;;;10.83;7.20;;;;;;;;;;5032598;28;20628;-69
2021/01/06 08:49:24;;;;;;;11.27;7.43;;;;;;;;;;5026490;28;20186;-69
2021/01/06 08:51:51;;;;;;;16.63;7.60;;;;;;;;;;5034834;28;21488;-69
2021/01/06 08:54:32;;;;;;;9.10;6.40;;;;;;;;;;5036126;28;20197;-69
2021/01/06 08:57:01;;;;;;;12.10;7.77;;;;;;;;;;5025281;28;20333;-69
2021/01/06 08:59:27;;;;;;;10.13;6.67;;;;;;;;;;5038474;28;20655;-69
2021/01/06 09:01:54;;;;;;;10.03;7.03;;;;;;;;;;5032342;28;20189;-69
2021/01/06 09:04:32;;;;;;;11.97;7.10;;;;;;;;;;5034514;28;20660;-69
2021/01/06 09:07:17;;;;;;;14.20;7.37;;;;;;;;;;5033103;28;20181;-69
2021/01/06 09:09:52;;;;;;;9.77;7.13;;;;;;;;;;5036699;28;20176;-69
2021/01/06 09:12:32;;;;;;;12.60;7.87;;;;;;;;;;5015274;28;20224;-69
2021/01/06 09:14:59;;;;;;;11.30;6.97;;;;;;;;;;5037524;28;20190;-69
2021/01/06 09:17:42;;;;;;;10.63;7.20;;;;;;;;;;5033730;28;20185;-69
2021/01/06 09:20:18;;;;;;;11.83;7.20;;;;;;;;;;5036039;28;20181;-69
2021/01/06 09:22:43;;;;;;;10.00;6.93;;;;;;;;;;5033354;28;20343;-69
2021/01/06 09:25:11;;;;;;;9.17;7.07;;;;;;;;;;5040730;28;20264;-69
2021/01/06 09:27:39;;;;;;;11.27;7.63;;;;;;;;;;5017097;28;20178;-69
2021/01/06 09:30:18;;;;;;;10.90;6.93;;;;;;;;;;5031954;28;20197;-69
2021/01/06 09:32:44;;;;;;;11.30;6.90;;;;;;;;;;5035985;28;20605;-69
2021/01/06 09:35:11;;;;;;;10.33;7.47;;;;;;;;;;5040392;28;20193;-69
2021/01/06 09:37:37;;;;;;;11.40;7.17;;;;;;;;;;5023365;28;20182;-69
2021/01/06 09:40:08;;;;;;;9.07;7.00;;;;;;;;;;5032725;28;20186;-69
2021/01/06 09:42:35;;;;;;;13.97;8.57;;;;;;;;;;5031508;28;20577;-69
2021/01/06 09:45:01;;;;;;;10.23;6.57;;;;;;;;;;5033302;28;20189;-69
2021/01/06 09:47:35;;;;;;;8.67;6.40;;;;;;;;;;5030818;28;20173;-69
2021/01/06 09:50:02;;;;;;;11.70;6.80;;;;;;;;;;5035853;28;20182;-69
2021/01/06 09:52:28;;;;;;;9.53;6.37;;;;;;;;;;5030911;28;20205;-69
2021/01/06 09:54:54;;;;;;;12.53;6.40;;;;;;;;;;5034863;28;20185;-69
2021/01/06 09:57:20;;;;;;;10.27;7.20;;;;;;;;;;5029692;28;20697;-69
2021/01/06 09:59:47;;;;;;;9.50;6.97;;;;;;;;;;5034163;28;20272;-69
2021/01/06 10:02:16;;;;;;;8.70;6.50;;;;;;;;;;5030106;28;20209;-68
2021/01/06 10:04:42;;;;;;;9.27;6.50;;;;;;;;;;5040894;28;20278;-69
2021/01/06 10:07:26;;;;;;;10.07;6.13;;;;;;;;;;5035396;28;20182;-68
2021/01/06 10:09:57;;;;;;;9.93;5.93;;;;;;;;;;5034598;28;20581;-69
2021/01/06 10:12:22;;;;;;;10.13;7.80;;;;;;;;;;5016811;28;20282;-69
2021/01/06 10:14:48;;;;;;;11.95;7.60;;;;;;;;;;5036260;28;20189;-69
2021/01/06 10:17:20;;;;;;;10.97;6.83;;;;;;;;;;5015677;28;20198;-69
2021/01/06 10:19:51;;;;;;;8.27;5.90;;;;;;;;;;5031700;28;20184;-69
2021/01/06 10:22:31;;;;;;;9.43;6.50;;;;;;;;;;5028128;28;20229;-69
2021/01/06 10:25:09;;;;;;;11.00;6.70;;;;;;;;;;5034236;28;20660;-69
2021/01/06 10:27:39;;;;;;;12.30;6.90;;;;;;;;;;5037742;28;20639;-69
2021/01/06 10:30:08;;;;;;;8.70;6.17;;;;;;;;;;5031698;28;20201;-69
2021/01/06 10:32:33;;;;;;;10.13;6.43;;;;;;;;;;5029809;28;20205;-68
2021/01/06 10:35:17;;;;;;;8.93;6.80;;;;;;;;;;5033058;28;20190;-69
2021/01/06 10:37:43;;;;;;;9.73;6.43;;;;;;;;;;5030407;28;20185;-69
2021/01/06 10:40:24;;;;;;;10.10;6.37;;;;;;;;;;5018336;28;20182;-68
2021/01/06 10:42:49;;;;;;;12.10;7.23;;;;;;;;;;5028674;28;20214;-69
2021/01/06 10:45:36;;;;;;;9.30;6.37;;;;;;;;;;5031800;28;20267;-69
2021/01/06 10:48:03;;;;;;;9.67;7.13;;;;;;;;;;5016261;28;20239;-69
2021/01/06 10:50:31;;;;;;;12.47;7.77;;;;;;;;;;5035997;28;20186;-69
2021/01/06 10:53:02;;;;;;;11.10;7.80;;;;;;;;;;5030988;28;20221;-69
2021/01/06 10:55:41;;;;;;;10.43;6.30;;;;;;;;;;5035278;28;21914;-69
2021/01/06 10:58:10;;;;;;;8.60;6.40;;;;;;;;;;5034980;28;20185;-69
2021/01/06 11:01:10;;;;;;;9.67;6.33;;;;;;;;;;5031732;28;20246;-69
2021/01/06 11:03:42;;;;;;;9.53;6.40;;;;;;;;;;4956484;28;20216;-68
2021/01/06 11:06:13;;;;;;;8.87;6.53;;;;;;;;;;5026976;28;20193;-69
2021/01/06 11:08:57;;;;;;;12.37;7.27;;;;;;;;;;5040000;28;20208;-68
2021/01/06 11:11:27;;;;;;;10.70;6.47;;;;;;;;;;5016586;28;20277;-69
2021/01/06 11:13:52;;;;;;;12.73;6.07;;;;;;;;;;5035209;28;20575;-69
2021/01/06 11:16:21;;;;;;;10.47;6.63;;;;;;;;;;5033550;28;20196;-69
2021/01/06 11:18:47;;;;;;;8.50;6.40;;;;;;;;;;5032578;28;20182;-69
2021/01/06 11:21:17;;;;;;;9.13;5.97;;;;;;;;;;5031302;28;20246;-68
2021/01/06 11:23:46;;;;;;;8.53;5.97;;;;;;;;;;5032637;28;20232;-69
2021/01/06 11:26:21;;;;;;;9.97;7.27;;;;;;;;;;5034711;28;20231;-69
2021/01/06 11:28:46;;;;;;;6.93;5.50;;;;;;;;;;5035992;28;20825;-69
2021/01/06 11:31:17;;;;;;;9.07;5.78;;;;;;;;;;5033303;28;20623;-69
2021/01/06 11:33:43;;;;;;;9.03;6.33;;;;;;;;;;5030165;28;20283;-69
2021/01/06 11:36:08;;;;;;;7.33;5.53;;;;;;;;;;5017270;28;20209;-68
2021/01/06 11:38:39;;;;;;;9.07;5.90;;;;;;;;;;5014166;28;20312;-69
2021/01/06 11:41:05;;;;;;;6.80;5.50;;;;;;;;;;5030147;28;20880;-68
2021/01/06 11:43:34;;;;;;;14.27;5.50;;;;;;;;;;5032625;28;20237;-68
2021/01/06 11:45:59;;;;;;;9.67;6.10;;;;;;;;;;5030415;28;20182;-68
2021/01/06 11:48:25;;;;;;;7.87;6.10;;;;;;;;;;5030541;28;20177;-69
2021/01/06 11:50:50;;;;;;;8.80;6.15;;;;;;;;;;5031819;28;20292;-68
2021/01/06 11:53:29;;;;;;;10.50;6.20;;;;;;;;;;5031157;28;20256;-68
2021/01/06 11:56:13;;;;;;;6.50;4.80;;;;;;;;;;5034132;28;20328;-70
2021/01/06 11:59:04;;;;;;;8.60;5.50;;;;;;;;;;5031165;28;20184;-68
2021/01/06 12:01:48;;;;;;;7.33;4.60;;;;;;;;;;5035028;28;20233;-69
2021/01/06 12:04:13;;;;;;;6.80;4.43;;;;;;;;;;5041734;28;20705;-69
2021/01/06 12:06:45;;;;;;;7.97;5.23;;;;;;;;;;5019594;28;20181;-69
2021/01/06 12:09:17;;;;;;;5.30;4.60;;;;;;;;;;5037095;28;20178;-70
2021/01/06 12:12:05;;;;;;;7.00;4.53;;;;;;;;;;5034102;28;20252;-69
2021/01/06 12:14:46;;;;;;;5.27;4.47;;;;;;;;;;5023002;28;20244;-68
2021/01/06 12:17:16;;;;;;;6.50;3.83;;;;;;;;;;5034668;28;20178;-67
2021/01/06 12:19:58;;;;;;;12.27;4.30;;;;;;;;;;5037898;28;20178;-68
2021/01/06 12:22:24;;;;;;;7.00;4.57;;;;;;;;;;5035331;28;20209;-68
2021/01/06 12:24:54;;;;;;;7.93;4.37;;;;;;;;;;5039745;28;20185;-69
2021/01/06 12:27:35;;;;;;;5.43;4.50;;;;;;;;;;5034352;28;20181;-67
2021/01/06 12:30:05;;;;;;;7.23;4.40;;;;;;;;;;5037440;28;20182;-68
2021/01/06 12:32:46;;;;;;;8.30;5.57;;;;;;;;;;5032803;28;20201;-67
2021/01/06 12:35:17;;;;;;;6.47;3.87;;;;;;;;;;5037144;28;20239;-70
2021/01/06 12:37:43;;;;;;;8.43;4.33;;;;;;;;;;5034587;28;20263;-67
2021/01/06 12:40:11;;;;;;;5.30;3.93;;;;;;;;;;5037981;28;20193;-67
2021/01/06 12:42:39;;;;;;;6.87;4.00;;;;;;;;;;5033455;28;20609;-67
2021/01/06 12:45:25;;;;;;;6.90;3.47;;;;;;;;;;5039695;28;20170;-67
2021/01/06 12:48:09;;;;;;;7.13;3.47;;;;;;;;;;5018534;28;20220;-67
2021/01/06 12:50:41;;;;;;;8.57;4.03;;;;;;;;;;5033331;28;20712;-67
2021/01/06 12:53:15;;;;;;;7.93;3.63;;;;;;;;;;5031858;28;20213;-70
2021/01/06 12:55:54;;;;;;;8.17;3.80;;;;;;;;;;5033043;28;20181;-67
2021/01/06 12:58:34;;;;;;;5.97;3.87;;;;;;;;;;5033471;28;20209;-67
2021/01/06 13:01:02;;;;;;;6.90;4.07;;;;;;;;;;5040406;28;20224;-68
2021/01/06 13:03:57;;;;;;;5.70;4.47;;;;;;;;;;5040757;28;20216;-67
2021/01/06 13:06:31;;;;;;;5.93;3.77;;;;;;;;;;5019580;28;20297;-68
2021/01/06 13:09:04;;;;;;;9.83;4.40;;;;;;;;;;5036299;28;20241;-67
2021/01/06 13:11:32;;;;;;;6.07;3.80;;;;;;;;;;5014263;28;20942;-67
2021/01/06 13:14:08;;;;;;;5.77;4.27;;;;;;;;;;5039860;28;20255;-70
2021/01/06 13:16:41;;;;;;;8.63;3.90;;;;;;;;;;5033616;28;20174;-67
2021/01/06 13:19:10;;;;;;;8.63;4.10;;;;;;;;;;5018334;28;20515;-68
2021/01/06 13:21:37;;;;;;;6.70;3.73;;;;;;;;;;5034709;28;20197;-67
2021/01/06 13:24:09;;;;;;;8.77;4.07;;;;;;;;;;5039435;28;20255;-67
2021/01/06 13:26:39;;;;;;;6.67;4.17;;;;;;;;;;5038478;28;20598;-67
2021/01/06 13:29:28;;;;;;;7.13;3.83;;;;;;;;;;5034340;28;20208;-67
2021/01/06 13:32:11;;;;;;;5.63;3.43;;;;;;;;;;5023080;28;20193;-68
2021/01/06 13:34:53;;;;;;;6.93;3.77;;;;;;;;;;5033971;28;20213;-67
2021/01/06 13:37:20;;;;;;;8.00;3.93;;;;;;;;;;5015132;28;20181;-67
2021/01/06 13:39:51;;;;;;;6.97;3.80;;;;;;;;;;5031412;28;20345;-67
2021/01/06 13:42:22;;;;;;;12.10;4.45;;;;;;;;;;5033268;28;20209;-67
2021/01/06 13:44:47;;;;;;;5.67;3.53;;;;;;;;;;5024697;28;20181;-67
2021/01/06 13:47:21;;;;;;;5.77;3.47;;;;;;;;;;5015766;28;20205;-67
2021/01/06 13:49:58;;;;;;;5.33;3.27;;;;;;;;;;5035357;28;20778;-69
2021/01/06 13:52:23;;;;;;;9.07;3.30;;;;;;;;;;5031663;28;20206;-70
2021/01/06 13:54:52;;;;;;;6.67;3.50;;;;;;;;;;5035255;28;20680;-67
2021/01/06 13:57:36;;;;;;;11.43;4.50;;;;;;;;;;5015107;28;20190;-67
2021/01/06 14:00:04;;;;;;;7.30;3.83;;;;;;;;;;5036962;28;20193;-67
2021/01/06 14:02:35;;;;;;;5.30;3.43;;;;;;;;;;5030473;28;20714;-67
2021/01/06 14:05:03;;;;;;;7.53;3.23;;;;;;;;;;5023482;28;20180;-70
2021/01/06 14:07:47;;;;;;;8.37;3.80;;;;;;;;;;5042773;28;20177;-67
2021/01/06 14:10:20;;;;;;;8.00;3.80;;;;;;;;;;5036225;28;20319;-67
2021/01/06 14:12:50;;;;;;;16.27;3.80;;;;;;;;;;5035205;28;20218;-70
2021/01/06 14:15:44;;;;;;;5.97;3.47;;;;;;;;;;5037318;28;20563;-68
2021/01/06 14:18:18;;;;;;;6.53;2.77;;;;;;;;;;5034073;28;20194;-67
2021/01/06 14:20:43;;;;;;;6.27;3.50;;;;;;;;;;5039559;28;20176;-70
2021/01/06 14:23:22;;;;;;;6.60;3.47;;;;;;;;;;5045368;28;20217;-68
2021/01/06 14:25:52;;;;;;;7.67;3.63;;;;;;;;;;5028105;28;20615;-67
2021/01/06 14:28:29;;;;;;;6.07;4.43;;;;;;;;;;5027606;28;20302;-70
2021/01/06 14:30:54;;;;;;;5.30;2.83;;;;;;;;;;5035395;28;20243;-68
2021/01/06 14:33:22;;;;;;;6.13;3.17;;;;;;;;;;5031019;28;20205;-68
2021/01/06 14:35:51;;;;;;;7.53;3.40;;;;;;;;;;5018166;28;20182;-70
2021/01/06 14:38:22;;;;;;;7.87;3.47;;;;;;;;;;5034037;28;20188;-70
2021/01/06 14:40:50;;;;;;;6.30;3.70;;;;;;;;;;5030988;28;20187;-69
2021/01/06 14:43:29;;;;;;;4.57;3.23;;;;;;;;;;5029429;28;20696;-69
2021/01/06 14:46:00;;;;;;;6.53;4.00;;;;;;;;;;5038764;28;20614;-70
2021/01/06 14:48:28;;;;;;;9.83;3.20;;;;;;;;;;5035323;28;20243;-69
2021/01/06 14:50:59;;;;;;;6.67;3.17;;;;;;;;;;5020751;28;20556;-69
2021/01/06 14:53:28;;;;;;;6.23;3.37;;;;;;;;;;5038629;28;20301;-69
2021/01/06 14:56:06;;;;;;;6.53;3.03;;;;;;;;;;5037998;28;20636;-69